Map

Track Data

SID SEASON NUMBER BASIN SUBBASIN NAME ISO_TIME NATURE LAT LON WMO_WIND WMO_PRES WMO_AGENCY TRACK_TYPE DIST2LAND LANDFALL IFLAG USA_AGENCY USA_ATCF_ID USA_LAT USA_LON USA_RECORD USA_STATUS USA_WIND USA_PRES USA_SSHS USA_R34_NE USA_R34_SE USA_R34_SW USA_R34_NW USA_R50_NE USA_R50_SE USA_R50_SW USA_R50_NW USA_R64_NE USA_R64_SE USA_R64_SW USA_R64_NW USA_POCI USA_ROCI USA_RMW USA_EYE TOKYO_LAT TOKYO_LON TOKYO_GRADE TOKYO_WIND TOKYO_PRES TOKYO_R50_DIR TOKYO_R50_LONG TOKYO_R50_SHORT TOKYO_R30_DIR TOKYO_R30_LONG TOKYO_R30_SHORT TOKYO_LAND CMA_LAT CMA_LON CMA_CAT CMA_WIND CMA_PRES HKO_LAT HKO_LON HKO_CAT HKO_WIND HKO_PRES NEWDELHI_LAT NEWDELHI_LON NEWDELHI_GRADE NEWDELHI_WIND NEWDELHI_PRES NEWDELHI_CI NEWDELHI_DP NEWDELHI_POCI REUNION_LAT REUNION_LON REUNION_TYPE REUNION_WIND REUNION_PRES REUNION_TNUM REUNION_CI REUNION_RMW REUNION_R34_NE REUNION_R34_SE REUNION_R34_SW REUNION_R34_NW REUNION_R50_NE REUNION_R50_SE REUNION_R50_SW REUNION_R50_NW REUNION_R64_NE REUNION_R64_SE REUNION_R64_SW REUNION_R64_NW BOM_LAT BOM_LON BOM_TYPE BOM_WIND BOM_PRES BOM_TNUM BOM_CI BOM_RMW BOM_R34_NE BOM_R34_SE BOM_R34_SW BOM_R34_NW BOM_R50_NE BOM_R50_SE BOM_R50_SW BOM_R50_NW BOM_R64_NE BOM_R64_SE BOM_R64_SW BOM_R64_NW BOM_ROCI BOM_POCI BOM_EYE BOM_POS_METHOD BOM_PRES_METHOD NADI_LAT NADI_LON NADI_CAT NADI_WIND NADI_PRES WELLINGTON_LAT WELLINGTON_LON WELLINGTON_WIND WELLINGTON_PRES DS824_LAT DS824_LON DS824_STAGE DS824_WIND DS824_PRES TD9636_LAT TD9636_LON TD9636_STAGE TD9636_WIND TD9636_PRES TD9635_LAT TD9635_LON TD9635_WIND TD9635_PRES TD9635_ROCI NEUMANN_LAT NEUMANN_LON NEUMANN_CLASS NEUMANN_WIND NEUMANN_PRES MLC_LAT MLC_LON MLC_CLASS MLC_WIND MLC_PRES USA_GUST BOM_GUST BOM_GUST_PER REUNION_GUST REUNION_GUST_PER USA_SEAHGT USA_SEARAD_NE USA_SEARAD_SE USA_SEARAD_SW USA_SEARAD_NW STORM_SPEED STORM_DIR
1980169N12250 1980 40 EP MM BLAS 1980-06-16 18:00:00 TS 11.8000 -109.900 35 hurdat_epa main 992 985 O________OO___ hurdat_epa EP021980 11.8000 -109.900 TS 35 0 11.8000 -109.900 TC 35 11.8000 -109.900 2 35 8 311
1980169N12250 1980 40 EP MM BLAS 1980-06-16 21:00:00 TS 12.0590 -110.201 main 982 979 P________PP___ EP021980 12.0576 -110.202 TS 42 0 12.0576 -110.202 TC 42 12.0645 -110.196 2 42 8 310
1980169N12250 1980 40 EP MM BLAS 1980-06-17 00:00:00 TS 12.3000 -110.500 50 hurdat_epa main 983 979 O________OO___ hurdat_epa EP021980 12.3000 -110.500 TS 50 0 12.3000 -110.500 TC 50 12.3000 -110.500 2 50 7 308
1980169N12250 1980 40 EP MM BLAS 1980-06-17 03:00:00 TS 12.5094 -110.798 main 986 984 P________PP___ EP021980 12.5149 -110.793 TS 50 0 12.5149 -110.793 TC 50 12.4873 -110.819 2 50 7 303
1980169N12250 1980 40 EP MM BLAS 1980-06-17 06:00:00 TS 12.6893 -111.109 50 hurdat_epa main 991 991 O________OP___ hurdat_epa EP021980 12.7000 -111.100 TS 50 0 12.7000 -111.100 TC 50 12.6466 -111.147 2 50 7 297
1980169N12250 1980 40 EP MM BLAS 1980-06-17 09:00:00 TS 12.8355 -111.449 main 1005 1004 P________PP___ EP021980 12.8425 -111.443 TS 50 0 12.8425 -111.443 TC 50 12.8075 -111.477 2 50 7 295
1980169N12250 1980 40 EP MM BLAS 1980-06-17 12:00:00 TS 13.0000 -111.800 50 hurdat_epa main 1019 1019 O________OO___ hurdat_epa EP021980 13.0000 -111.800 TS 50 0 13.0000 -111.800 TC 50 13.0000 -111.800 2 50 8 300
1980169N12250 1980 40 EP MM BLAS 1980-06-17 15:00:00 TS 13.2312 -112.153 main 1034 1026 P________PP___ EP021980 13.2200 -112.165 TS 42 0 13.2200 -112.165 TC 42 13.2761 -112.107 2 48 8 308
1980169N12250 1980 40 EP MM BLAS 1980-06-17 18:00:00 TS 13.5170 -112.481 35 hurdat_epa main 1034 1026 O________OP___ hurdat_epa EP021980 13.5000 -112.500 TS 35 0 13.5000 -112.500 TC 35 13.5848 -112.407 2 47 9 318
1980169N12250 1980 40 EP MM BLAS 1980-06-17 21:00:00 TS 13.8601 -112.741 main 1020 1020 P________PP___ EP021980 13.8499 -112.750 TS 40 0 13.8499 -112.750 TC 40 13.9011 -112.704 2 46 9 324
1980169N12250 1980 40 EP MM BLAS 1980-06-18 00:00:00 TS 14.2000 -113.000 45 hurdat_epa main 1023 1001 O________OO___ hurdat_epa EP021980 14.2000 -113.000 TS 45 0 14.2000 -113.000 TC 45 14.2000 -113.000 2 45 8 316
1980169N12250 1980 40 EP MM BLAS 1980-06-18 03:00:00 TS 14.4714 -113.340 main 1001 992 P________PP___ EP021980 14.4726 -113.350 TS 45 0 14.4726 -113.350 TC 45 14.4667 -113.300 2 45 8 307
1980169N12250 1980 40 EP MM BLAS 1980-06-18 06:00:00 TS 14.7020 -113.680 45 hurdat_epa main 996 984 O________OP___ hurdat_epa EP021980 14.7000 -113.700 TS 45 0 14.7000 -113.700 TC 45 14.7098 -113.600 2 45 7 307
1980169N12250 1980 40 EP MM BLAS 1980-06-18 09:00:00 TS 14.9105 -113.934 main 984 973 P________PP___ EP021980 14.9073 -113.943 TS 45 0 14.9073 -113.943 TC 45 14.9230 -113.900 2 45 6 308
1980169N12250 1980 40 EP MM BLAS 1980-06-18 12:00:00 TS 15.1000 -114.200 45 hurdat_epa main 977 972 O________OO___ hurdat_epa EP021980 15.1000 -114.200 TS 45 0 15.1000 -114.200 TC 45 15.1000 -114.200 2 45 8 303
1980169N12250 1980 40 EP MM BLAS 1980-06-18 15:00:00 TS 15.3138 -114.588 main 977 973 P________PP___ EP021980 15.3302 -114.607 TS 40 0 15.3302 -114.607 TC 40 15.2481 -114.512 2 42 8 297
1980169N12250 1980 40 EP MM BLAS 1980-06-18 18:00:00 TS 15.4720 -114.965 35 hurdat_epa main 979 979 O________OP___ hurdat_epa EP021980 15.5000 -115.000 TS 35 0 15.5000 -115.000 TC 35 15.3600 -114.823 2 40 6 289
1980169N12250 1980 40 EP MM BLAS 1980-06-18 21:00:00 TS 15.5123 -115.202 main 991 991 P________PP___ EP021980 15.5298 -115.223 TS 35 0 15.5298 -115.223 TC 35 15.4419 -115.122 2 37 4 274
1980169N12250 1980 40 EP MM BLAS 1980-06-19 00:00:00 TS 15.5000 -115.400 35 hurdat_epa main 1003 1003 O________OO___ hurdat_epa EP021980 15.5000 -115.400 TS 35 0 15.5000 -115.400 TC 35 15.5000 -115.400 2 35 4 269
1980169N12250 1980 40 EP MM BLAS 1980-06-19 03:00:00 TS 15.5020 -115.650 main 1021 1021 P________PP___ EP021980 15.4925 -115.650 TS 35 0 15.4925 -115.650 TC 35 15.5398 -115.651 2 33 5 271
1980169N12250 1980 40 EP MM BLAS 1980-06-19 06:00:00 TS 15.5120 -115.896 35 hurdat_epa main 1033 1033 O________OP___ hurdat_epa EP021980 15.5000 -115.900 TS 35 0 15.5000 -115.900 TC 35 15.5601 -115.881 2 32 4 276
1980169N12250 1980 40 EP MM BLAS 1980-06-19 09:00:00 TS 15.5490 -116.105 main 1046 1037 P________PP___ EP021980 15.5425 -116.107 TS 32 -1 15.5425 -116.107 TC 32 15.5753 -116.095 2 31 4 283
1980169N12250 1980 40 EP MM BLAS 1980-06-19 12:00:00 TS 15.6000 -116.300 30 hurdat_epa main 1050 1050 O________OO___ hurdat_epa EP021980 15.6000 -116.300 TD 30 -1 15.6000 -116.300 TC 30 15.6000 -116.300 1 30 4 285
1980169N12250 1980 40 EP MM BLAS 1980-06-19 15:00:00 TS 15.6509 -116.498 main 1055 1055 P________PP___ EP021980 15.6525 -116.497 TD 30 -1 15.6525 -116.497 TC 30 15.6441 -116.501 1 30 4 285
1980169N12250 1980 40 EP MM BLAS 1980-06-19 18:00:00 TS 15.7000 -116.700 30 hurdat_epa main 1068 O________OO___ hurdat_epa EP021980 15.7000 -116.700 TD 30 -1 15.7000 -116.700 TC 30 15.7000 -116.700 1 30 4 284

About IBTrACS Database

This database is a web-friendly format of International Best Track Archive for Climate Stewardship (IBTrACS), a global best track data archive curated by NOAA dating back to 1842.

Updated: 2021-11-26